createdAt,value
2018-02-04T00:02:21.014Z,48.60
2018-02-04T00:04:48.956Z,48.46
2018-02-04T00:07:18.236Z,48.52
2018-02-04T00:09:46.331Z,48.46
2018-02-04T00:12:15.322Z,48.34
2018-02-04T00:14:44.180Z,48.32
2018-02-04T00:17:12.104Z,48.52
2018-02-04T00:19:39.872Z,48.44
2018-02-04T00:22:08.150Z,48.47
2018-02-04T00:24:35.713Z,48.44
2018-02-04T00:27:03.240Z,48.36
2018-02-04T00:29:30.806Z,48.48
2018-02-04T00:31:58.416Z,48.48
2018-02-04T00:34:25.942Z,48.61
2018-02-04T00:36:53.513Z,48.76
2018-02-04T00:39:21.899Z,48.56
2018-02-04T00:41:49.482Z,48.45
2018-02-04T00:44:17.017Z,48.46
2018-02-04T00:46:44.541Z,48.63
2018-02-04T00:49:12.117Z,48.60
2018-02-04T00:51:39.655Z,48.72
2018-02-04T00:54:07.616Z,48.58
2018-02-04T00:56:35.193Z,48.48
2018-02-04T00:59:02.789Z,48.52
2018-02-04T01:01:30.357Z,48.57
2018-02-04T01:03:57.946Z,48.35
2018-02-04T01:06:26.493Z,48.42
2018-02-04T01:08:54.054Z,48.41
2018-02-04T01:11:21.631Z,48.35
2018-02-04T01:13:49.157Z,48.33
2018-02-04T01:16:16.735Z,48.30
2018-02-04T01:18:44.675Z,48.26
2018-02-04T01:21:12.242Z,48.26
2018-02-04T01:23:40.179Z,48.23
2018-02-04T01:26:08.020Z,48.24
2018-02-04T01:28:35.545Z,48.16
2018-02-04T01:31:03.115Z,48.08
2018-02-04T01:33:30.942Z,48.12
2018-02-04T01:35:58.833Z,48.18
2018-02-04T01:38:26.734Z,48.26
2018-02-04T01:40:54.327Z,48.21
2018-02-04T01:43:21.863Z,48.17
2018-02-04T01:45:49.719Z,48.18
2018-02-04T01:48:17.662Z,48.16
2018-02-04T01:50:45.230Z,48.13
2018-02-04T01:53:12.814Z,48.11
2018-02-04T01:55:40.346Z,48.17
2018-02-04T01:58:08.199Z,48.09
2018-02-04T02:00:35.773Z,48.08
2018-02-04T02:03:03.347Z,48.25
2018-02-04T02:05:30.938Z,48.28
2018-02-04T02:07:58.470Z,48.68
2018-02-04T02:10:25.998Z,48.67
2018-02-04T02:12:53.570Z,48.61
2018-02-04T02:15:21.361Z,48.44
2018-02-04T02:17:48.933Z,48.44
2018-02-04T02:20:16.467Z,48.41
2018-02-04T02:22:44.342Z,48.54
2018-02-04T02:25:12.731Z,48.34
2018-02-04T02:27:40.480Z,48.57
2018-02-04T02:30:08.016Z,48.82
2018-02-04T02:32:36.621Z,48.80
2018-02-04T02:35:04.213Z,48.85
2018-02-04T02:37:31.747Z,48.92
2018-02-04T02:39:59.294Z,48.81
2018-02-04T02:42:26.857Z,48.68
2018-02-04T02:44:54.390Z,48.73
2018-02-04T02:47:22.288Z,48.59
2018-02-04T02:49:49.870Z,48.60
2018-02-04T02:52:17.417Z,48.62
2018-02-04T02:54:44.954Z,48.86
2018-02-04T02:57:12.522Z,48.76
2018-02-04T02:59:40.098Z,48.69
2018-02-04T03:02:07.766Z,48.59
2018-02-04T03:04:35.339Z,48.49
2018-02-04T03:07:02.875Z,49.04
2018-02-04T03:09:30.458Z,49.02
2018-02-04T03:11:57.986Z,48.91
2018-02-04T03:14:25.852Z,48.91
2018-02-04T03:16:53.417Z,48.75
2018-02-04T03:19:20.988Z,48.73
2018-02-04T03:21:48.518Z,48.83
2018-02-04T03:24:16.309Z,48.96
2018-02-04T03:26:43.829Z,49.08
2018-02-04T03:29:11.362Z,49.32
2018-02-04T03:31:39.429Z,49.46
2018-02-04T03:34:06.953Z,49.62
2018-02-04T03:36:34.527Z,49.98
2018-02-04T03:39:02.110Z,50.65
2018-02-04T03:41:29.650Z,51.05
2018-02-04T03:43:57.552Z,52.08
2018-02-04T03:46:25.085Z,51.93
2018-02-04T03:48:52.641Z,51.56
2018-02-04T03:51:20.214Z,51.68
2018-02-04T03:53:48.547Z,52.14
2018-02-04T03:56:16.506Z,52.29
2018-02-04T03:58:44.030Z,52.37
2018-02-04T04:01:11.585Z,52.71
2018-02-04T04:03:39.152Z,52.94
2018-02-04T04:06:06.718Z,52.96
2018-02-04T04:08:34.310Z,53.51
2018-02-04T04:11:02.026Z,54.05
2018-02-04T04:13:29.556Z,54.54
2018-02-04T04:15:57.817Z,55.22
2018-02-04T04:18:25.358Z,54.96
2018-02-04T04:20:53.031Z,55.42
2018-02-04T04:23:20.801Z,56.90
2018-02-04T04:25:48.566Z,59.40
2018-02-04T04:37:24.509Z,57.23
2018-02-04T04:39:52.078Z,56.28
2018-02-04T04:42:19.645Z,56.34
2018-02-04T04:44:47.187Z,56.30
2018-02-04T04:47:15.128Z,55.94
2018-02-04T04:49:42.659Z,57.00
2018-02-04T04:52:10.261Z,57.52
2018-02-04T04:54:37.793Z,57.27
2018-02-04T04:57:05.330Z,56.71
2018-02-04T04:59:33.092Z,56.82
2018-02-04T05:02:00.671Z,59.67
2018-02-04T05:04:28.206Z,60.77
2018-02-04T05:06:55.769Z,60.73
2018-02-04T05:09:23.298Z,61.37
2018-02-04T05:11:51.075Z,62.00
2018-02-04T05:14:18.607Z,62.63
2018-02-04T05:16:46.182Z,62.97
2018-02-04T05:19:13.706Z,62.84
2018-02-04T05:21:41.335Z,64.29
2018-02-04T05:24:08.859Z,64.24
2018-02-04T05:26:36.640Z,63.56
2018-02-04T05:29:04.205Z,63.51
2018-02-04T05:31:31.738Z,63.41
2018-02-04T05:33:59.538Z,62.53
2018-02-04T05:36:27.341Z,63.02
2018-02-04T05:38:54.874Z,62.04
2018-02-04T05:41:22.438Z,63.93
2018-02-04T05:43:50.500Z,64.55
2018-02-04T05:46:18.098Z,63.56
2018-02-04T05:48:45.654Z,63.62
2018-02-04T05:51:13.376Z,63.69
2018-02-04T05:53:41.076Z,63.04
2018-02-04T05:56:08.616Z,62.58
2018-02-04T05:58:37.669Z,62.11
2018-02-04T06:01:05.233Z,62.09
2018-02-04T06:03:32.758Z,61.77
2018-02-04T06:06:00.331Z,61.61
2018-02-04T06:08:27.972Z,61.45
2018-02-04T06:10:55.543Z,61.27
2018-02-04T06:13:23.075Z,61.11
2018-02-04T06:15:50.641Z,60.64
2018-02-04T06:18:18.172Z,60.62
2018-02-04T06:20:45.774Z,60.60
2018-02-04T06:23:13.750Z,59.74
2018-02-04T06:25:41.305Z,60.10
2018-02-04T06:28:08.901Z,60.79
2018-02-04T06:30:36.439Z,62.16
2018-02-04T06:33:04.047Z,63.84
2018-02-04T06:35:31.839Z,65.61
2018-02-04T06:37:59.417Z,66.48
2018-02-04T06:40:26.998Z,66.24
2018-02-04T06:42:54.592Z,66.90
2018-02-04T06:45:22.134Z,68.56
2018-02-04T06:47:49.769Z,68.98
2018-02-04T06:50:17.354Z,69.27
2018-02-04T06:52:45.581Z,69.10
2018-02-04T06:55:13.101Z,69.57
2018-02-04T06:57:41.607Z,69.44
2018-02-04T07:00:22.323Z,67.95
2018-02-04T07:02:49.890Z,67.85
2018-02-04T07:05:17.472Z,67.32
2018-02-04T07:07:45.372Z,66.49
2018-02-04T07:10:13.448Z,67.07
2018-02-04T07:12:41.016Z,66.56
2018-02-04T07:15:08.590Z,67.36
2018-02-04T07:17:36.122Z,65.81
2018-02-04T07:20:03.751Z,66.76
2018-02-04T07:22:31.800Z,66.90
2018-02-04T07:24:59.692Z,67.62
2018-02-04T07:27:27.258Z,67.86
2018-02-04T07:29:54.835Z,67.16
2018-02-04T07:32:22.407Z,69.29
2018-02-04T07:34:50.001Z,67.77
2018-02-04T07:37:17.580Z,69.20
2018-02-04T07:39:45.389Z,70.88
2018-02-04T07:42:13.152Z,71.72
2018-02-04T07:44:40.690Z,70.91
2018-02-04T07:47:08.256Z,70.17
2018-02-04T07:49:35.794Z,70.11
2018-02-04T07:52:03.360Z,69.35
2018-02-04T07:54:31.625Z,68.23
2018-02-04T07:56:59.395Z,66.61
2018-02-04T07:59:26.931Z,66.24
2018-02-04T08:01:54.701Z,65.96
2018-02-04T08:04:22.279Z,65.66
2018-02-04T08:06:49.819Z,65.42
2018-02-04T08:09:17.403Z,65.26
2018-02-04T08:11:44.977Z,64.72
2018-02-04T08:14:12.819Z,64.60
2018-02-04T08:16:40.936Z,64.75
2018-02-04T08:19:09.357Z,64.57
2018-02-04T08:21:36.930Z,64.22
2018-02-04T08:24:04.475Z,63.37
2018-02-04T08:26:32.053Z,63.17
2018-02-04T08:28:59.592Z,62.35
2018-02-04T08:31:27.158Z,63.28
2018-02-04T08:33:54.681Z,62.76
2018-02-04T08:36:23.213Z,62.22
2018-02-04T08:38:51.115Z,62.77
2018-02-04T08:41:18.699Z,63.08
2018-02-04T08:43:46.231Z,63.18
2018-02-04T08:46:13.771Z,62.93
2018-02-04T08:48:41.355Z,62.90
2018-02-04T08:51:08.925Z,62.39
2018-02-04T08:53:37.435Z,61.84
2018-02-04T08:56:05.005Z,61.62
2018-02-04T08:58:32.577Z,61.33
2018-02-04T09:01:00.675Z,60.98
2018-02-04T09:03:28.255Z,60.84
2018-02-04T09:05:55.853Z,60.57
2018-02-04T09:08:23.396Z,60.44
2018-02-04T09:10:51.371Z,61.30
2018-02-04T09:13:19.200Z,61.77
2018-02-04T09:15:46.747Z,61.62
2018-02-04T09:18:14.341Z,61.57
2018-02-04T09:20:41.877Z,61.76
2018-02-04T09:23:09.949Z,62.43
2018-02-04T09:25:38.054Z,62.22
2018-02-04T09:28:05.578Z,62.01
2018-02-04T09:30:33.440Z,62.44
2018-02-04T09:33:01.006Z,62.14
2018-02-04T09:35:29.152Z,62.96
2018-02-04T09:37:57.312Z,63.43
2018-02-04T09:40:24.898Z,63.55
2018-02-04T09:42:52.474Z,63.89
2018-02-04T09:45:20.185Z,63.78
2018-02-04T09:47:48.023Z,64.51
2018-02-04T09:50:16.247Z,63.97
2018-02-04T09:52:44.076Z,64.15
2018-02-04T09:55:11.650Z,64.71
2018-02-04T09:57:39.223Z,64.08
2018-02-04T10:00:07.618Z,63.42
2018-02-04T10:02:35.221Z,63.74
2018-02-04T10:05:02.751Z,64.18
2018-02-04T10:07:31.281Z,64.98
2018-02-04T10:09:58.851Z,64.89
2018-02-04T10:12:26.446Z,65.93
2018-02-04T10:14:53.981Z,66.25
2018-02-04T10:17:21.659Z,65.38
2018-02-04T10:19:50.051Z,65.30
2018-02-04T10:22:18.019Z,65.28
2018-02-04T10:24:45.604Z,64.60
2018-02-04T10:27:13.192Z,64.13
2018-02-04T10:29:40.814Z,64.79
2018-02-04T10:32:08.855Z,65.04
2018-02-04T10:34:36.394Z,64.67
2018-02-04T10:37:04.477Z,64.41
2018-02-04T10:39:32.247Z,64.30
2018-02-04T10:41:59.777Z,64.44
2018-02-04T10:44:29.867Z,64.32
2018-02-04T10:46:57.460Z,63.79
2018-02-04T10:49:25.667Z,64.08
2018-02-04T10:51:58.571Z,63.88
2018-02-04T10:54:27.374Z,63.77
2018-02-04T10:56:54.919Z,63.64
2018-02-04T10:59:22.592Z,64.31
2018-02-04T11:01:50.883Z,63.57
2018-02-04T11:04:18.426Z,63.79
2018-02-04T11:06:47.789Z,63.52
2018-02-04T11:09:15.684Z,64.61
2018-02-04T11:11:43.471Z,64.28
2018-02-04T11:14:11.042Z,63.93
2018-02-04T11:16:39.707Z,63.72
2018-02-04T11:19:07.316Z,63.89
2018-02-04T11:21:34.868Z,63.07
2018-02-04T11:24:03.378Z,63.50
2018-02-04T11:26:31.037Z,64.41
2018-02-04T11:28:59.139Z,63.00
2018-02-04T11:31:26.723Z,63.41
2018-02-04T11:33:55.153Z,62.75
2018-02-04T11:36:22.836Z,62.68
2018-02-04T11:38:50.575Z,62.86
2018-02-04T11:41:18.239Z,62.76
2018-02-04T11:43:45.818Z,62.66
2018-02-04T11:46:13.888Z,62.09
2018-02-04T11:48:42.177Z,60.92
2018-02-04T11:51:09.706Z,61.27
2018-02-04T11:53:37.331Z,61.37
2018-02-04T11:56:04.925Z,61.28
2018-02-04T11:58:32.503Z,60.94
2018-02-04T12:01:00.342Z,61.14
2018-02-04T12:03:28.951Z,61.69
2018-02-04T12:05:56.550Z,61.48
2018-02-04T12:08:24.127Z,62.14
2018-02-04T12:10:51.751Z,61.27
2018-02-04T12:13:19.322Z,61.90
2018-02-04T12:15:47.260Z,61.94
2018-02-04T12:18:15.356Z,61.29
2018-02-04T12:20:43.017Z,60.85
2018-02-04T12:23:10.571Z,59.42
2018-02-04T12:25:38.114Z,60.45
2018-02-04T12:28:05.682Z,60.78
2018-02-04T12:30:34.330Z,61.10
2018-02-04T12:33:03.618Z,60.50
2018-02-04T12:35:31.202Z,60.26
2018-02-04T12:37:58.775Z,59.72
2018-02-04T12:40:27.365Z,59.75
2018-02-04T12:42:54.995Z,59.49
2018-02-04T12:45:22.675Z,59.13
2018-02-04T12:47:51.554Z,58.98
2018-02-04T12:50:19.093Z,59.37
2018-02-04T12:52:47.751Z,59.46
2018-02-04T12:55:16.381Z,58.80
2018-02-04T12:57:44.472Z,57.89
2018-02-04T13:00:12.011Z,58.26
2018-02-04T13:02:39.565Z,58.09
2018-02-04T13:05:08.077Z,58.24
2018-02-04T13:07:35.683Z,57.94
2018-02-04T13:10:04.084Z,57.06
2018-02-04T13:12:32.623Z,57.49
2018-02-04T13:15:00.166Z,56.01
2018-02-04T13:17:27.748Z,55.95
2018-02-04T13:19:55.643Z,56.65
2018-02-04T13:22:23.370Z,55.98
2018-02-04T13:24:51.842Z,56.14
2018-02-04T13:27:19.424Z,55.43
2018-02-04T13:29:46.954Z,56.83
2018-02-04T13:32:14.526Z,56.62
2018-02-04T13:34:42.064Z,56.26
2018-02-04T13:37:09.925Z,56.53
2018-02-04T13:39:38.022Z,54.65
2018-02-04T13:42:06.446Z,54.62
2018-02-04T13:44:34.531Z,55.66
2018-02-04T13:47:02.134Z,55.56
2018-02-04T13:49:29.661Z,55.73
2018-02-04T13:51:57.230Z,55.96
2018-02-04T13:54:24.933Z,56.13
2018-02-04T13:56:52.491Z,56.45
2018-02-04T13:59:20.086Z,56.05
2018-02-04T14:01:47.655Z,55.43
2018-02-04T14:04:15.981Z,55.68
2018-02-04T14:06:43.740Z,55.22
2018-02-04T14:09:12.286Z,56.14
2018-02-04T14:11:39.835Z,56.48
2018-02-04T14:14:07.414Z,56.61
2018-02-04T14:16:34.951Z,56.65
2018-02-04T14:19:03.181Z,57.01
2018-02-04T14:21:31.303Z,57.24
2018-02-04T14:23:59.196Z,57.50
2018-02-04T14:26:27.137Z,57.62
2018-02-04T14:28:54.705Z,57.84
2018-02-04T14:31:22.410Z,57.90
2018-02-04T14:33:51.302Z,57.65
2018-02-04T14:36:18.971Z,57.77
2018-02-04T14:38:46.890Z,56.91
2018-02-04T14:41:15.240Z,56.26
2018-02-04T14:43:42.830Z,56.22
2018-02-04T14:46:11.207Z,56.30
2018-02-04T14:48:38.995Z,56.73
2018-02-04T14:51:08.101Z,56.19
2018-02-04T14:53:35.865Z,55.99
2018-02-04T14:56:05.585Z,56.46
2018-02-04T14:58:33.616Z,56.21
2018-02-04T15:22:33.100Z,51.36
2018-02-04T15:25:01.190Z,53.40
2018-02-04T15:27:29.396Z,53.77
2018-02-04T15:29:57.445Z,52.73
2018-02-04T15:32:25.233Z,53.09
2018-02-04T15:34:55.926Z,53.73
2018-02-04T15:37:24.119Z,54.51
2018-02-04T15:39:52.154Z,54.97
2018-02-04T15:42:19.748Z,54.80
2018-02-04T15:44:47.300Z,54.27
2018-02-04T15:47:14.960Z,54.87
2018-02-04T15:49:43.520Z,55.08
2018-02-04T15:52:13.554Z,55.29
2018-02-04T15:54:41.110Z,55.38
2018-02-04T15:57:08.771Z,55.42
2018-02-04T15:59:36.780Z,55.85
2018-02-04T16:02:04.611Z,54.98
2018-02-04T16:04:32.203Z,55.59
2018-02-04T16:07:00.804Z,55.74
2018-02-04T16:09:28.346Z,55.60
2018-02-04T16:11:56.618Z,55.93
2018-02-04T16:14:24.215Z,57.63
2018-02-04T16:16:51.764Z,59.01
2018-02-04T16:19:20.163Z,58.70
2018-02-04T16:21:47.721Z,58.10
2018-02-04T16:24:15.322Z,57.90
2018-02-04T16:26:43.843Z,57.77
2018-02-04T16:29:12.262Z,58.25
2018-02-04T16:31:40.791Z,58.47
2018-02-04T16:34:10.050Z,58.65
2018-02-04T16:36:38.827Z,58.31
2018-02-04T16:39:07.259Z,57.67
2018-02-04T16:41:35.635Z,59.33
2018-02-04T16:44:03.612Z,58.73
2018-02-04T16:46:31.764Z,58.41
2018-02-04T16:48:59.823Z,58.61
2018-02-04T16:51:27.660Z,58.31
2018-02-04T16:53:57.311Z,59.19
2018-02-04T16:56:24.999Z,58.25
2018-02-04T16:58:53.040Z,58.31
2018-02-04T17:01:20.793Z,57.24
2018-02-04T17:03:49.652Z,57.45
2018-02-04T17:06:18.280Z,58.26
2018-02-04T17:08:46.541Z,59.28
2018-02-04T17:11:15.547Z,59.69
2018-02-04T17:13:44.178Z,60.13
2018-02-04T17:16:12.720Z,60.04
2018-02-04T17:18:40.276Z,60.58
2018-02-04T17:21:08.404Z,60.88
2018-02-04T17:23:37.725Z,60.34
2018-02-04T17:26:05.349Z,60.42
2018-02-04T17:28:32.903Z,60.26
2018-02-04T17:31:00.565Z,59.47
2018-02-04T17:33:29.298Z,59.61
2018-02-04T17:35:57.479Z,58.78
2018-02-04T17:38:25.516Z,58.17
2018-02-04T17:40:53.370Z,58.03
2018-02-04T17:43:20.967Z,57.21
2018-02-04T17:45:48.903Z,56.92
2018-02-04T17:48:16.624Z,56.40
2018-02-04T17:50:44.772Z,56.23
2018-02-04T17:53:13.620Z,56.08
2018-02-04T17:55:41.545Z,55.56
2018-02-04T17:58:09.178Z,55.58
2018-02-04T18:00:38.779Z,55.61
2018-02-04T18:03:06.678Z,55.49
2018-02-04T18:05:34.692Z,55.29
2018-02-04T18:08:02.786Z,54.92
2018-02-04T18:10:30.343Z,54.60
2018-02-04T18:12:58.862Z,54.48
2018-02-04T18:15:28.953Z,56.12
2018-02-04T18:17:58.362Z,57.18
2018-02-04T18:20:27.369Z,58.76
2018-02-04T18:22:56.140Z,60.42
2018-02-04T18:25:24.726Z,60.79
2018-02-04T18:27:52.878Z,60.23
2018-02-04T18:30:21.791Z,59.89
2018-02-04T18:32:50.021Z,60.25
2018-02-04T18:35:18.524Z,60.88
2018-02-04T18:37:46.118Z,61.65
2018-02-04T18:40:13.739Z,62.07
2018-02-04T18:42:41.336Z,61.52
2018-02-04T18:45:08.922Z,62.63
2018-02-04T18:47:36.819Z,63.26
2018-02-04T18:50:05.158Z,62.81
2018-02-04T18:52:32.712Z,63.06
2018-02-04T18:55:01.890Z,63.88
2018-02-04T18:57:29.516Z,64.56
2018-02-04T18:59:57.076Z,64.77
2018-02-04T19:02:26.144Z,64.47
2018-02-04T19:04:53.757Z,63.88
2018-02-04T19:07:21.348Z,63.26
2018-02-04T19:09:49.733Z,63.73
2018-02-04T19:12:17.745Z,63.63
2018-02-04T19:14:45.298Z,63.87
2018-02-04T19:17:13.910Z,63.21
2018-02-04T19:19:41.960Z,62.67
2018-02-04T19:22:09.557Z,62.10
2018-02-04T19:24:38.079Z,61.29
2018-02-04T19:27:05.702Z,61.07
2018-02-04T19:29:34.602Z,59.92
2018-02-04T19:32:02.156Z,59.10
2018-02-04T19:34:30.535Z,58.17
2018-02-04T19:36:58.140Z,57.71
2018-02-04T19:39:27.569Z,57.55
2018-02-04T19:41:55.171Z,56.75
2018-02-04T19:44:23.567Z,56.74
2018-02-04T19:46:52.048Z,56.02
2018-02-04T19:49:19.719Z,56.25
2018-02-04T19:51:47.366Z,55.94
2018-02-04T19:54:15.874Z,56.21
2018-02-04T19:56:43.970Z,55.76
2018-02-04T19:59:11.897Z,55.83
2018-02-04T20:01:40.580Z,55.40
2018-02-04T20:04:08.143Z,55.29
2018-02-04T20:06:36.011Z,55.62
2018-02-04T20:09:06.058Z,55.49
2018-02-04T20:11:34.014Z,55.09
2018-02-04T20:14:03.221Z,55.37
2018-02-04T20:16:31.278Z,55.25
2018-02-04T20:18:58.889Z,55.11
2018-02-04T20:21:26.447Z,55.35
2018-02-04T20:23:54.988Z,53.98
2018-02-04T20:26:22.548Z,55.01
2018-02-04T20:28:50.734Z,53.91
2018-02-04T20:31:18.368Z,54.76
2018-02-04T20:33:57.641Z,55.60
2018-02-04T20:36:25.658Z,55.04
2018-02-04T20:38:53.220Z,54.74
2018-02-04T20:41:21.728Z,54.67
2018-02-04T20:43:50.106Z,53.81
2018-02-04T20:46:17.902Z,53.29
2018-02-04T20:48:46.708Z,54.65
2018-02-04T20:51:14.540Z,54.67
2018-02-04T20:53:42.152Z,56.08
2018-02-04T20:56:09.715Z,55.46
2018-02-04T20:58:38.716Z,56.03
2018-02-04T21:01:06.284Z,55.21
2018-02-04T21:03:33.959Z,56.64
2018-02-04T21:06:01.520Z,56.44
2018-02-04T21:08:29.163Z,56.54
2018-02-04T21:10:56.738Z,55.74
2018-02-04T21:13:24.330Z,56.55
2018-02-04T21:15:52.172Z,56.63
2018-02-04T21:18:19.806Z,57.32
2018-02-04T21:20:47.583Z,56.59
2018-02-04T21:23:15.145Z,56.20
2018-02-04T21:25:42.755Z,56.13
2018-02-04T21:28:10.374Z,55.78
2018-02-04T21:30:37.942Z,55.79
2018-02-04T21:33:05.542Z,55.38
2018-02-04T21:35:33.091Z,55.27
2018-02-04T21:38:00.702Z,54.71
2018-02-04T21:40:28.260Z,54.71
2018-02-04T21:42:55.854Z,54.88
2018-02-04T21:45:23.414Z,54.66
2018-02-04T21:47:51.007Z,54.52
2018-02-04T21:50:18.965Z,54.59
2018-02-04T21:52:46.575Z,54.56
2018-02-04T21:55:14.116Z,54.20
2018-02-04T21:57:41.864Z,54.10
2018-02-04T22:00:09.575Z,53.58
2018-02-04T22:02:37.132Z,53.88
2018-02-04T22:05:05.047Z,53.86
2018-02-04T22:07:32.652Z,53.16
2018-02-04T22:10:00.200Z,53.58
2018-02-04T22:12:27.787Z,53.23
2018-02-04T22:14:55.392Z,53.47
2018-02-04T22:17:22.950Z,53.32
2018-02-04T22:19:50.548Z,53.20
2018-02-04T22:22:18.142Z,52.97
2018-02-04T22:24:46.058Z,52.41
2018-02-04T22:27:13.614Z,52.87
2018-02-04T22:29:41.158Z,53.10
2018-02-04T22:32:08.760Z,53.59
2018-02-04T22:34:36.306Z,53.14
2018-02-04T22:37:03.940Z,54.53
2018-02-04T22:39:31.495Z,55.56
2018-02-04T22:41:59.103Z,55.26
2018-02-04T22:44:26.653Z,56.27
2018-02-04T22:46:54.260Z,54.96
2018-02-04T22:49:21.864Z,55.37
2018-02-04T22:51:49.904Z,54.37
2018-02-04T22:54:17.867Z,54.53
2018-02-04T22:56:45.505Z,53.49
2018-02-04T22:59:13.114Z,54.16
2018-02-04T23:01:40.991Z,52.87
2018-02-04T23:04:08.750Z,53.61
2018-02-04T23:06:36.505Z,52.79
2018-02-04T23:09:04.172Z,51.87
2018-02-04T23:11:31.806Z,52.03
2018-02-04T23:14:00.112Z,49.69
2018-02-04T23:16:27.659Z,50.74
2018-02-04T23:18:55.255Z,52.47
2018-02-04T23:21:23.403Z,55.07
2018-02-04T23:23:51.363Z,54.98
2018-02-04T23:26:18.920Z,53.71
2018-02-04T23:28:46.511Z,52.72
2018-02-04T23:31:14.103Z,52.67
2018-02-04T23:33:41.973Z,52.46
2018-02-04T23:36:09.559Z,52.11
2018-02-04T23:38:37.103Z,55.57
2018-02-04T23:41:05.168Z,57.41
2018-02-04T23:43:32.771Z,56.91
2018-02-04T23:46:00.350Z,55.21
2018-02-04T23:48:29.289Z,54.96
2018-02-04T23:50:56.891Z,54.77
2018-02-04T23:53:24.476Z,56.25
2018-02-04T23:55:52.059Z,56.64
2018-02-04T23:58:19.608Z,53.27
